Boston, Massachusetts
Traffic Map
Current Weather Conditions
Boston, Massachusetts
Clear
Clear
10°
Feels Like: 10°
Wind Chill: 10° Ceiling: Unl
Heat Index: 10° Visibility: 10mi
Dew Point: Wind: 6mph
Humidity: 74% Direction: 180° (S)
Pressure: 30.01in Gusts: 0mph
Raw Report DataKBOS 210454Z 18005KT 10SM CLR 10/06 A3001 RMK AO2 SLP161 T01000056 401440039
Traffic Incident Summary
Active as of:
Severity:
Category:
InformationThere was an issue retrieving the traffic information for this location. Please try a different location or try again shortly.
Advertisements
Track Severe Weather on mobile